createdAt,value
2022-10-29T00:00:14.886Z,968.77
2022-10-29T00:01:14.931Z,968.73
2022-10-29T00:02:14.848Z,968.80
2022-10-29T00:03:17.900Z,968.79
2022-10-29T00:04:14.843Z,968.83
2022-10-29T00:05:14.808Z,968.79
2022-10-29T00:06:14.853Z,968.78
2022-10-29T00:07:14.801Z,968.79
2022-10-29T00:08:14.780Z,968.81
2022-10-29T00:09:14.777Z,968.86
2022-10-29T00:10:14.757Z,968.86
2022-10-29T00:11:14.748Z,968.85
2022-10-29T00:12:14.788Z,968.80
2022-10-29T00:13:14.728Z,968.79
2022-10-29T00:14:14.708Z,968.78
2022-10-29T00:15:14.697Z,968.76
2022-10-29T00:16:14.691Z,968.74
2022-10-29T00:17:14.709Z,968.71
2022-10-29T00:18:17.668Z,968.76
2022-10-29T00:19:14.671Z,968.72
2022-10-29T00:20:14.664Z,968.76
2022-10-29T00:21:14.652Z,968.74
2022-10-29T00:22:14.647Z,968.76
2022-10-29T00:23:14.609Z,968.74
2022-10-29T00:24:14.612Z,968.70
2022-10-29T00:25:14.592Z,968.67
2022-10-29T00:26:14.590Z,968.64
2022-10-29T00:27:14.629Z,968.64
2022-10-29T00:28:14.563Z,968.59
2022-10-29T00:29:14.552Z,968.57
2022-10-29T00:30:14.554Z,968.58
2022-10-29T00:31:14.534Z,968.59
2022-10-29T00:32:14.619Z,968.64
2022-10-29T00:33:17.525Z,968.68
2022-10-29T00:34:14.523Z,968.72
2022-10-29T00:35:14.494Z,968.71
2022-10-29T00:36:14.483Z,968.71
2022-10-29T00:37:14.485Z,968.70
2022-10-29T00:38:14.483Z,968.68
2022-10-29T00:39:14.451Z,968.62
2022-10-29T00:40:14.445Z,968.61
2022-10-29T00:41:14.437Z,968.64
2022-10-29T00:42:14.434Z,968.63
2022-10-29T00:43:14.412Z,968.62
2022-10-29T00:44:14.411Z,968.65
2022-10-29T00:45:14.388Z,968.63
2022-10-29T00:46:14.377Z,968.69
2022-10-29T00:47:14.372Z,968.70
2022-10-29T00:48:17.360Z,968.73
2022-10-29T00:49:14.360Z,968.75
2022-10-29T00:50:14.346Z,968.76
2022-10-29T00:51:14.317Z,968.79
2022-10-29T00:52:14.309Z,968.77
2022-10-29T00:53:14.306Z,968.77
2022-10-29T00:54:14.410Z,968.80
2022-10-29T00:55:14.277Z,968.78
2022-10-29T00:56:14.267Z,968.79
2022-10-29T00:57:14.257Z,968.78
2022-10-29T00:58:14.260Z,968.79
2022-10-29T00:59:14.240Z,968.75
2022-10-29T01:00:14.231Z,968.76
2022-10-29T01:01:14.293Z,968.77
2022-10-29T01:02:14.395Z,968.76
2022-10-29T01:03:17.204Z,968.73
2022-10-29T01:04:14.204Z,968.69
2022-10-29T01:05:14.180Z,968.66
2022-10-29T01:06:14.160Z,968.68
2022-10-29T01:07:14.151Z,968.70
2022-10-29T01:08:14.141Z,968.72
2022-10-29T01:09:14.132Z,968.69
2022-10-29T01:10:14.124Z,968.78
2022-10-29T01:11:14.110Z,968.73
2022-10-29T01:12:14.113Z,968.76
2022-10-29T01:13:14.167Z,968.71
2022-10-29T01:14:14.086Z,968.73
2022-10-29T01:15:14.082Z,968.76
2022-10-29T01:16:14.064Z,968.72
2022-10-29T01:17:16.879Z,968.68
2022-10-29T01:18:17.044Z,968.65
2022-10-29T01:19:14.117Z,968.66
2022-10-29T01:20:14.036Z,968.65
2022-10-29T01:21:14.007Z,968.63
2022-10-29T01:22:13.994Z,968.60
2022-10-29T01:23:13.984Z,968.59
2022-10-29T01:24:13.979Z,968.54
2022-10-29T01:25:14.012Z,968.53
2022-10-29T01:26:13.948Z,968.56
2022-10-29T01:27:13.945Z,968.56
2022-10-29T01:28:13.963Z,968.56
2022-10-29T01:29:13.926Z,968.59
2022-10-29T01:30:13.923Z,968.61
2022-10-29T01:31:13.905Z,968.64
2022-10-29T01:32:13.887Z,968.59
2022-10-29T01:33:16.909Z,968.58
2022-10-29T01:34:13.887Z,968.57
2022-10-29T01:35:13.910Z,968.51
2022-10-29T01:36:13.859Z,968.53
2022-10-29T01:37:13.837Z,968.56
2022-10-29T01:38:13.829Z,968.52
2022-10-29T01:39:13.818Z,968.55
2022-10-29T01:40:13.809Z,968.49
2022-10-29T01:41:13.801Z,968.47
2022-10-29T01:42:13.791Z,968.44
2022-10-29T01:43:13.806Z,968.42
2022-10-29T01:44:13.771Z,968.44
2022-10-29T01:45:13.739Z,968.42
2022-10-29T01:46:13.763Z,968.38
2022-10-29T01:47:13.745Z,968.35
2022-10-29T01:48:16.722Z,968.37
2022-10-29T01:49:13.730Z,968.34
2022-10-29T01:50:13.702Z,968.34
2022-10-29T01:51:13.696Z,968.33
2022-10-29T01:52:13.682Z,968.32
2022-10-29T01:53:13.675Z,968.26
2022-10-29T01:54:13.663Z,968.22
2022-10-29T01:55:13.697Z,968.29
2022-10-29T01:56:13.642Z,968.29
2022-10-29T01:57:13.654Z,968.30
2022-10-29T01:58:13.644Z,968.29
2022-10-29T01:59:22.985Z,968.30
2022-10-29T02:00:14.608Z,968.31
2022-10-29T02:01:13.746Z,968.31
2022-10-29T02:02:13.582Z,968.29
2022-10-29T02:03:16.589Z,968.29
2022-10-29T02:04:13.573Z,968.32
2022-10-29T02:05:13.547Z,968.29
2022-10-29T02:06:13.535Z,968.29
2022-10-29T02:07:13.525Z,968.23
2022-10-29T02:08:13.509Z,968.22
2022-10-29T02:09:13.507Z,968.21
2022-10-29T02:10:13.495Z,968.19
2022-10-29T02:11:13.506Z,968.18
2022-10-29T02:12:13.469Z,968.16
2022-10-29T02:13:13.501Z,968.17
2022-10-29T02:14:13.458Z,968.15
2022-10-29T02:15:13.437Z,968.14
2022-10-29T02:16:13.430Z,968.14
2022-10-29T02:17:13.422Z,968.14
2022-10-29T02:18:16.508Z,968.12
2022-10-29T02:19:13.409Z,968.11
2022-10-29T02:20:13.392Z,968.11
2022-10-29T02:21:13.377Z,968.15
2022-10-29T02:22:13.362Z,968.10
2022-10-29T02:23:13.371Z,968.15
2022-10-29T02:24:13.399Z,968.12
2022-10-29T02:25:13.419Z,968.09
2022-10-29T02:26:13.340Z,968.10
2022-10-29T02:27:13.309Z,968.05
2022-10-29T02:28:13.377Z,968.05
2022-10-29T02:29:13.292Z,968.11
2022-10-29T02:30:13.311Z,968.09
2022-10-29T02:31:13.280Z,968.13
2022-10-29T02:32:13.266Z,968.12
2022-10-29T02:33:16.252Z,968.13
2022-10-29T02:34:13.254Z,968.18
2022-10-29T02:35:13.231Z,968.14
2022-10-29T02:36:13.215Z,968.12
2022-10-29T02:37:13.211Z,968.12
2022-10-29T02:38:13.203Z,968.07
2022-10-29T02:39:13.189Z,968.05
2022-10-29T02:40:13.176Z,968.04
2022-10-29T02:41:13.262Z,968.04
2022-10-29T02:42:13.196Z,968.03
2022-10-29T02:43:13.200Z,968.02
2022-10-29T02:44:13.138Z,968.02
2022-10-29T02:45:13.125Z,968.03
2022-10-29T02:46:13.110Z,967.99
2022-10-29T02:47:13.107Z,967.97
2022-10-29T02:48:16.087Z,967.96
2022-10-29T02:49:13.098Z,967.95
2022-10-29T02:50:13.070Z,967.96
2022-10-29T02:51:13.091Z,967.98
2022-10-29T02:52:13.071Z,967.97
2022-10-29T02:53:13.056Z,967.97
2022-10-29T02:54:13.026Z,968.02
2022-10-29T02:55:13.016Z,967.98
2022-10-29T02:56:13.008Z,968.00
2022-10-29T02:57:13.007Z,968.03
2022-10-29T02:58:12.997Z,968.00
2022-10-29T02:59:12.972Z,968.04
2022-10-29T03:00:13.060Z,968.04
2022-10-29T03:01:13.002Z,968.03
2022-10-29T03:02:13.074Z,968.02
2022-10-29T03:03:15.938Z,968.04
2022-10-29T03:04:12.938Z,968.03
2022-10-29T03:05:13.063Z,968.08
2022-10-29T03:06:12.914Z,968.05
2022-10-29T03:07:12.940Z,967.98
2022-10-29T03:08:12.882Z,967.99
2022-10-29T03:09:12.873Z,967.99
2022-10-29T03:10:12.870Z,967.97
2022-10-29T03:11:12.862Z,967.90
2022-10-29T03:12:12.861Z,967.96
2022-10-29T03:13:12.838Z,967.92
2022-10-29T03:14:12.860Z,967.92
2022-10-29T03:15:12.805Z,967.91
2022-10-29T03:16:12.835Z,967.92
2022-10-29T03:17:12.793Z,967.91
2022-10-29T03:18:15.773Z,967.88
2022-10-29T03:19:12.835Z,967.89
2022-10-29T03:20:12.825Z,967.87
2022-10-29T03:21:12.796Z,967.88
2022-10-29T03:22:12.805Z,967.85
2022-10-29T03:23:12.726Z,967.91
2022-10-29T03:24:12.716Z,967.90
2022-10-29T03:25:12.704Z,967.89
2022-10-29T03:26:12.710Z,967.89
2022-10-29T03:27:12.698Z,967.89
2022-10-29T03:28:12.675Z,967.87
2022-10-29T03:29:12.709Z,967.91
2022-10-29T03:30:12.660Z,967.93
2022-10-29T03:31:12.648Z,967.89
2022-10-29T03:32:12.632Z,967.92
2022-10-29T03:33:15.631Z,967.93
2022-10-29T03:34:12.631Z,967.89
2022-10-29T03:35:12.606Z,967.90
2022-10-29T03:36:12.624Z,967.86
2022-10-29T03:37:12.630Z,967.90
2022-10-29T03:38:12.579Z,967.86
2022-10-29T03:39:12.564Z,967.88
2022-10-29T03:40:12.550Z,967.84
2022-10-29T03:41:12.537Z,967.82
2022-10-29T03:42:12.558Z,967.80
2022-10-29T03:43:12.516Z,967.78
2022-10-29T03:44:12.510Z,967.83
2022-10-29T03:45:12.550Z,967.84
2022-10-29T03:46:12.492Z,967.82
2022-10-29T03:47:12.481Z,967.82
2022-10-29T03:48:15.461Z,967.81
2022-10-29T03:49:12.473Z,967.82
2022-10-29T03:50:12.440Z,967.87
2022-10-29T03:51:12.442Z,967.89
2022-10-29T03:52:12.539Z,967.92
2022-10-29T03:53:12.413Z,967.82
2022-10-29T03:54:12.413Z,967.84
2022-10-29T03:55:12.396Z,967.84
2022-10-29T03:56:12.422Z,967.85
2022-10-29T03:57:12.364Z,967.82
2022-10-29T03:58:12.351Z,967.85
2022-10-29T03:59:12.353Z,967.84
2022-10-29T04:00:12.342Z,967.83
2022-10-29T04:01:12.412Z,967.84
2022-10-29T04:02:12.512Z,967.84
2022-10-29T04:03:15.316Z,967.85
2022-10-29T04:04:12.341Z,967.90
2022-10-29T04:05:12.286Z,967.85
2022-10-29T04:06:12.281Z,967.87
2022-10-29T04:07:12.289Z,967.90
2022-10-29T04:08:12.257Z,967.90
2022-10-29T04:09:12.238Z,967.93
2022-10-29T04:10:12.234Z,967.93
2022-10-29T04:11:12.231Z,967.92
2022-10-29T04:12:13.189Z,967.93
2022-10-29T04:13:12.204Z,967.87
2022-10-29T04:14:12.189Z,967.89
2022-10-29T04:15:12.181Z,967.87
2022-10-29T04:16:12.173Z,967.86
2022-10-29T04:17:12.158Z,967.80
2022-10-29T04:18:15.174Z,967.80
2022-10-29T04:19:12.160Z,967.81
2022-10-29T04:20:27.884Z,967.79
2022-10-29T04:27:08.072Z,967.83
2022-10-29T04:29:13.212Z,967.81
2022-10-29T04:31:12.013Z,967.85
2022-10-29T04:32:11.999Z,967.84
2022-10-29T04:33:14.992Z,967.81
2022-10-29T04:34:12.008Z,967.85
2022-10-29T04:35:11.962Z,967.85
2022-10-29T04:36:11.953Z,967.85
2022-10-29T04:37:11.940Z,967.84
2022-10-29T04:38:11.939Z,967.84
2022-10-29T04:39:11.924Z,967.86
2022-10-29T04:40:12.036Z,967.83
2022-10-29T04:41:11.903Z,967.84
2022-10-29T04:42:11.911Z,967.86
2022-10-29T04:43:11.889Z,967.86
2022-10-29T04:44:11.875Z,967.80
2022-10-29T04:45:11.864Z,967.80
2022-10-29T04:46:11.846Z,967.83
2022-10-29T04:47:11.861Z,967.84
2022-10-29T04:48:14.833Z,967.80
2022-10-29T04:49:12.012Z,967.81
2022-10-29T04:50:11.813Z,967.79
2022-10-29T04:51:11.795Z,967.79
2022-10-29T04:52:11.788Z,967.82
2022-10-29T04:53:11.782Z,967.82
2022-10-29T04:54:11.790Z,967.87
2022-10-29T04:55:11.756Z,967.88
2022-10-29T04:56:11.746Z,967.87
2022-10-29T04:57:11.747Z,967.90
2022-10-29T04:58:11.727Z,967.91
2022-10-29T04:59:11.717Z,967.90
2022-10-29T05:00:16.213Z,967.94
2022-10-29T05:01:11.917Z,967.88
2022-10-29T05:02:11.884Z,967.87
2022-10-29T05:03:14.679Z,967.91
2022-10-29T05:04:11.677Z,967.88
2022-10-29T05:05:11.656Z,967.84
2022-10-29T05:06:11.635Z,967.85
2022-10-29T05:07:11.638Z,967.86
2022-10-29T05:08:11.630Z,967.92
2022-10-29T05:09:11.606Z,967.90
2022-10-29T05:10:11.596Z,967.86
2022-10-29T05:11:11.587Z,967.90
2022-10-29T05:12:11.581Z,967.83
2022-10-29T05:13:11.681Z,967.86
2022-10-29T05:14:11.561Z,967.85
2022-10-29T05:15:11.551Z,967.87
2022-10-29T05:16:11.530Z,967.90
2022-10-29T05:17:11.543Z,967.91
2022-10-29T05:18:14.516Z,967.94
2022-10-29T05:19:11.570Z,967.93
2022-10-29T05:20:11.502Z,967.91
2022-10-29T05:21:11.479Z,967.94
2022-10-29T05:22:11.472Z,967.97
2022-10-29T05:23:11.461Z,967.94
2022-10-29T05:24:11.452Z,967.95
2022-10-29T05:25:11.447Z,967.90
2022-10-29T05:26:11.471Z,967.89
2022-10-29T05:27:11.425Z,967.83
2022-10-29T05:28:11.411Z,967.87
2022-10-29T05:29:11.397Z,967.84
2022-10-29T05:30:11.396Z,967.90
2022-10-29T05:31:11.374Z,967.88
2022-10-29T05:32:11.373Z,967.90
2022-10-29T05:33:14.366Z,967.94
2022-10-29T05:34:11.388Z,967.89
2022-10-29T05:35:11.336Z,967.92
2022-10-29T05:36:11.325Z,967.90
2022-10-29T05:37:11.266Z,967.92
2022-10-29T05:38:11.257Z,967.88
2022-10-29T05:39:11.262Z,967.88
2022-10-29T05:40:11.226Z,967.88
2022-10-29T05:41:11.236Z,967.86
2022-10-29T05:42:11.218Z,967.85
2022-10-29T05:43:11.196Z,967.87
2022-10-29T05:44:11.188Z,967.88
2022-10-29T05:45:11.178Z,967.88
2022-10-29T05:46:11.177Z,967.85
2022-10-29T05:47:11.267Z,967.79
2022-10-29T05:48:14.152Z,967.78
2022-10-29T05:49:11.169Z,967.80
2022-10-29T05:50:11.128Z,967.81
2022-10-29T05:51:11.109Z,967.83
2022-10-29T05:52:11.097Z,967.80
2022-10-29T05:53:11.094Z,967.82
2022-10-29T05:54:11.097Z,967.85
2022-10-29T05:55:11.088Z,967.88
2022-10-29T05:56:11.091Z,967.83
2022-10-29T05:57:11.059Z,967.86
2022-10-29T05:58:11.043Z,967.88
2022-10-29T05:59:11.022Z,967.89
2022-10-29T06:00:11.023Z,967.90
2022-10-29T06:01:11.096Z,967.91
2022-10-29T06:02:11.085Z,967.88
2022-10-29T06:03:14.123Z,967.87
2022-10-29T06:04:10.992Z,967.85
2022-10-29T06:05:10.975Z,967.85
2022-10-29T06:06:11.031Z,967.88
2022-10-29T06:07:10.942Z,967.84
2022-10-29T06:08:10.935Z,967.79
2022-10-29T06:09:10.924Z,967.81
2022-10-29T06:10:10.911Z,967.78
2022-10-29T06:11:10.902Z,967.81
2022-10-29T06:12:10.995Z,967.82
2022-10-29T06:13:10.883Z,967.83
2022-10-29T06:14:10.864Z,967.88
2022-10-29T06:15:10.865Z,967.85
2022-10-29T06:16:10.900Z,967.91
2022-10-29T06:17:10.839Z,967.89
2022-10-29T06:18:13.833Z,967.89
2022-10-29T06:19:10.843Z,967.91
2022-10-29T06:20:10.807Z,967.95
2022-10-29T06:21:10.797Z,967.97
2022-10-29T06:22:10.781Z,967.91
2022-10-29T06:23:10.778Z,967.88
2022-10-29T06:24:10.774Z,967.89
2022-10-29T06:25:10.761Z,967.89
2022-10-29T06:26:10.738Z,967.93
2022-10-29T06:27:10.747Z,967.90
2022-10-29T06:28:10.731Z,967.85
2022-10-29T06:29:10.808Z,967.89
2022-10-29T06:30:10.700Z,967.86
2022-10-29T06:31:10.707Z,967.85
2022-10-29T06:32:11.649Z,967.85
2022-10-29T06:33:13.670Z,967.85
2022-10-29T06:34:10.679Z,967.83
2022-10-29T06:35:10.646Z,967.88
2022-10-29T06:36:10.659Z,967.86
2022-10-29T06:37:10.634Z,967.90
2022-10-29T06:38:12.379Z,967.89
2022-10-29T06:39:10.608Z,967.86
2022-10-29T06:40:10.600Z,967.88
2022-10-29T06:41:10.580Z,967.85
2022-10-29T06:42:10.584Z,967.86
2022-10-29T06:43:10.585Z,967.85
2022-10-29T06:44:10.564Z,967.85
2022-10-29T06:45:10.550Z,967.83
2022-10-29T06:46:10.539Z,967.81
2022-10-29T06:47:10.520Z,967.81
2022-10-29T06:48:14.586Z,967.79
2022-10-29T06:49:10.517Z,967.85
2022-10-29T06:50:10.497Z,967.79
2022-10-29T06:51:10.599Z,967.85
2022-10-29T06:52:10.462Z,967.83
2022-10-29T06:53:10.482Z,967.84
2022-10-29T06:54:10.453Z,967.89
2022-10-29T06:55:10.434Z,967.85
2022-10-29T06:56:10.436Z,967.83
2022-10-29T06:57:10.414Z,967.88
2022-10-29T06:58:10.424Z,967.91
2022-10-29T06:59:10.394Z,967.91
2022-10-29T07:00:10.395Z,967.89
2022-10-29T07:01:10.537Z,967.87
2022-10-29T07:02:10.426Z,967.89
2022-10-29T07:03:13.391Z,967.89
2022-10-29T07:04:10.366Z,967.93
2022-10-29T07:05:10.328Z,967.97
2022-10-29T07:06:10.343Z,967.94
2022-10-29T07:07:10.316Z,967.97
2022-10-29T07:08:10.355Z,967.97
2022-10-29T07:09:10.286Z,967.99
2022-10-29T07:10:10.285Z,968.00
2022-10-29T07:11:10.275Z,968.02
2022-10-29T07:12:10.265Z,967.99
2022-10-29T07:13:10.250Z,968.03
2022-10-29T07:14:10.238Z,968.04
2022-10-29T07:15:10.274Z,968.08
2022-10-29T07:16:10.228Z,968.07
2022-10-29T07:17:10.207Z,968.06
2022-10-29T07:18:13.204Z,968.09
2022-10-29T07:19:10.225Z,968.02
2022-10-29T07:20:10.178Z,968.04
2022-10-29T07:21:10.158Z,968.04
2022-10-29T07:22:10.153Z,968.02
2022-10-29T07:23:10.169Z,968.06
2022-10-29T07:24:10.140Z,968.02
2022-10-29T07:25:10.127Z,968.04
2022-10-29T07:26:10.139Z,968.05
2022-10-29T07:27:10.171Z,968.04
2022-10-29T07:28:10.171Z,968.09
2022-10-29T07:29:10.115Z,968.11
2022-10-29T07:30:10.161Z,968.10
2022-10-29T07:31:10.063Z,968.16
2022-10-29T07:32:10.067Z,968.11
2022-10-29T07:33:13.060Z,968.09
2022-10-29T07:34:10.049Z,968.11
2022-10-29T07:35:10.026Z,968.07
2022-10-29T07:36:10.033Z,968.05
2022-10-29T07:37:10.065Z,968.08
2022-10-29T07:38:11.158Z,968.07
2022-10-29T07:39:09.989Z,968.14
2022-10-29T07:40:09.966Z,968.08
2022-10-29T07:41:09.965Z,968.09
2022-10-29T07:42:09.963Z,968.12
2022-10-29T07:43:09.951Z,968.09
2022-10-29T07:44:09.945Z,968.11
2022-10-29T07:45:10.055Z,968.13
2022-10-29T07:46:09.914Z,968.14
2022-10-29T07:47:09.896Z,968.10
2022-10-29T07:48:12.880Z,968.06
2022-10-29T07:49:09.889Z,968.04
2022-10-29T07:50:09.896Z,968.05
2022-10-29T07:51:09.881Z,968.04
2022-10-29T07:52:09.850Z,968.11
2022-10-29T07:53:09.845Z,968.07
2022-10-29T07:54:14.512Z,968.13
2022-10-29T07:55:09.816Z,968.05
2022-10-29T07:56:09.796Z,968.10
2022-10-29T07:57:09.898Z,968.07
2022-10-29T07:58:09.771Z,968.06
2022-10-29T07:59:09.776Z,968.05
2022-10-29T08:00:09.759Z,968.03
2022-10-29T08:01:09.796Z,968.07
2022-10-29T08:02:09.777Z,967.99
2022-10-29T08:03:12.725Z,968.02
2022-10-29T08:04:09.731Z,968.02
2022-10-29T08:05:09.739Z,968.02
2022-10-29T08:06:09.694Z,968.01
2022-10-29T08:07:09.678Z,968.00
2022-10-29T08:08:09.669Z,968.02
2022-10-29T08:09:09.666Z,968.04
2022-10-29T08:10:09.653Z,968.03
2022-10-29T08:11:09.763Z,968.06
2022-10-29T08:12:10.729Z,968.09
2022-10-29T08:13:09.611Z,968.08
2022-10-29T08:14:09.607Z,968.08
2022-10-29T08:15:09.600Z,968.10
2022-10-29T08:16:09.855Z,968.12
2022-10-29T08:17:09.574Z,968.10
2022-10-29T08:18:12.571Z,968.07
2022-10-29T08:19:09.563Z,968.07
2022-10-29T08:20:09.547Z,968.09
2022-10-29T08:21:09.531Z,968.09
2022-10-29T08:22:09.522Z,968.09
2022-10-29T08:23:09.514Z,968.10
2022-10-29T08:24:09.507Z,968.08
2022-10-29T08:25:09.515Z,968.08
2022-10-29T08:26:09.485Z,968.10
2022-10-29T08:27:09.505Z,968.09
2022-10-29T08:28:09.464Z,968.09
2022-10-29T08:29:09.456Z,968.09
2022-10-29T08:30:09.445Z,968.05
2022-10-29T08:31:09.428Z,968.03
2022-10-29T08:32:09.430Z,968.05
2022-10-29T08:33:12.406Z,968.05
2022-10-29T08:34:11.217Z,968.05
2022-10-29T08:35:09.378Z,968.07
2022-10-29T08:36:09.377Z,968.10
2022-10-29T08:37:09.376Z,968.04
2022-10-29T08:38:09.359Z,968.07
2022-10-29T08:39:09.372Z,968.04
2022-10-29T08:40:09.341Z,968.05
2022-10-29T08:41:09.330Z,968.03
2022-10-29T08:42:09.338Z,967.98
2022-10-29T08:43:09.299Z,967.97
2022-10-29T08:44:09.291Z,967.99
2022-10-29T08:45:09.288Z,967.96
2022-10-29T08:46:09.280Z,967.93
2022-10-29T08:47:09.385Z,967.96
2022-10-29T08:48:12.261Z,967.96
2022-10-29T08:49:09.261Z,967.97
2022-10-29T08:50:09.246Z,968.00
2022-10-29T08:51:09.240Z,967.96
2022-10-29T08:52:09.213Z,967.95
2022-10-29T08:53:22.984Z,967.95
2022-10-29T08:54:29.673Z,967.93
2022-10-29T08:55:10.184Z,967.95
2022-10-29T08:56:09.173Z,967.96
2022-10-29T08:57:09.159Z,967.97
2022-10-29T08:58:09.253Z,967.93
2022-10-29T08:59:09.163Z,967.96
2022-10-29T09:01:09.160Z,967.95
2022-10-29T09:02:09.151Z,967.90
2022-10-29T09:03:12.093Z,967.92
2022-10-29T09:04:09.121Z,967.94
2022-10-29T09:05:09.096Z,967.93
2022-10-29T09:06:09.062Z,967.90
2022-10-29T09:07:09.048Z,967.88
2022-10-29T09:08:09.044Z,967.89
2022-10-29T09:09:09.029Z,967.89
2022-10-29T09:10:09.078Z,967.91
2022-10-29T09:11:09.007Z,967.92
2022-10-29T09:12:08.991Z,967.90
2022-10-29T09:13:08.990Z,967.87
2022-10-29T09:14:08.978Z,967.93
2022-10-29T09:15:08.958Z,967.87
2022-10-29T09:16:09.000Z,967.89
2022-10-29T09:17:11.523Z,967.85
2022-10-29T09:18:11.933Z,967.85
2022-10-29T09:19:08.942Z,967.84
2022-10-29T09:20:08.910Z,967.83
2022-10-29T09:21:08.899Z,967.79
2022-10-29T09:22:08.929Z,967.83
2022-10-29T09:23:08.881Z,967.84
2022-10-29T09:24:08.930Z,967.79
2022-10-29T09:25:08.870Z,967.86
2022-10-29T09:26:08.845Z,967.83
2022-10-29T09:27:10.558Z,967.83
2022-10-29T09:28:08.823Z,967.82
2022-10-29T09:29:08.820Z,967.77
2022-10-29T09:30:08.793Z,967.84
2022-10-29T09:31:08.811Z,967.76
2022-10-29T09:32:08.777Z,967.78
2022-10-29T09:33:11.784Z,967.78
2022-10-29T09:34:08.775Z,967.80
2022-10-29T09:35:08.744Z,967.79
2022-10-29T09:36:08.735Z,967.82
2022-10-29T09:37:08.727Z,967.80
2022-10-29T09:38:08.720Z,967.81
2022-10-29T09:39:08.706Z,967.76
2022-10-29T09:40:08.695Z,967.79
2022-10-29T09:41:08.719Z,967.77
2022-10-29T09:42:08.687Z,967.78
2022-10-29T09:43:08.672Z,967.77
2022-10-29T09:44:08.772Z,967.81
2022-10-29T09:45:08.666Z,967.80
2022-10-29T09:46:08.658Z,967.76
2022-10-29T09:47:09.842Z,967.77
2022-10-29T09:48:11.610Z,967.75
2022-10-29T09:49:08.636Z,967.73
2022-10-29T09:50:09.146Z,967.74
2022-10-29T09:51:08.681Z,967.69
2022-10-29T09:52:08.600Z,967.79
2022-10-29T09:53:08.559Z,967.76
2022-10-29T09:54:08.555Z,967.76
2022-10-29T09:55:08.534Z,967.74
2022-10-29T09:56:08.535Z,967.73
2022-10-29T09:57:08.512Z,967.75
2022-10-29T09:58:08.503Z,967.69
2022-10-29T09:59:08.494Z,967.69
2022-10-29T10:00:08.480Z,967.68
2022-10-29T10:01:08.525Z,967.71
2022-10-29T10:02:08.609Z,967.66
2022-10-29T10:03:11.522Z,967.69
2022-10-29T10:04:08.462Z,967.70
2022-10-29T10:05:08.435Z,967.67
2022-10-29T10:06:08.414Z,967.67
2022-10-29T10:07:08.420Z,967.68
2022-10-29T10:08:08.400Z,967.73
2022-10-29T10:09:08.384Z,967.68
2022-10-29T10:10:08.382Z,967.71
2022-10-29T10:11:08.365Z,967.67
2022-10-29T10:12:08.467Z,967.69
2022-10-29T10:13:11.715Z,967.65
2022-10-29T10:14:08.358Z,967.67
2022-10-29T10:15:08.322Z,967.66
2022-10-29T10:16:08.316Z,967.65
2022-10-29T10:17:08.298Z,967.65
2022-10-29T10:18:11.289Z,967.60
2022-10-29T10:19:08.410Z,967.61
2022-10-29T10:20:08.278Z,967.59
2022-10-29T10:21:08.273Z,967.56
2022-10-29T10:22:10.221Z,967.56
2022-10-29T10:23:08.231Z,967.59
2022-10-29T10:24:08.319Z,967.55
2022-10-29T10:25:08.324Z,967.50
2022-10-29T10:26:08.202Z,967.51
2022-10-29T10:27:08.199Z,967.51
2022-10-29T10:28:08.190Z,967.54
2022-10-29T10:29:08.212Z,967.53
2022-10-29T10:30:08.171Z,967.47
2022-10-29T10:31:08.175Z,967.51
2022-10-29T10:32:08.140Z,967.49
2022-10-29T10:33:11.162Z,967.50
2022-10-29T10:34:08.132Z,967.47
2022-10-29T10:35:08.134Z,967.41
2022-10-29T10:36:08.110Z,967.43
2022-10-29T10:37:08.100Z,967.45
2022-10-29T10:38:08.088Z,967.43
2022-10-29T10:39:08.081Z,967.45
2022-10-29T10:40:08.086Z,967.43
2022-10-29T10:41:08.045Z,967.38
2022-10-29T10:42:08.035Z,967.41
2022-10-29T10:43:08.994Z,967.37
2022-10-29T10:44:08.019Z,967.38
2022-10-29T10:45:08.046Z,967.37
2022-10-29T10:46:07.991Z,967.35
2022-10-29T10:47:07.984Z,967.35
2022-10-29T10:48:11.154Z,967.35
2022-10-29T10:49:07.969Z,967.37
2022-10-29T10:50:07.949Z,967.33
2022-10-29T10:51:07.993Z,967.30
2022-10-29T10:52:08.003Z,967.30
2022-10-29T10:53:07.918Z,967.28
2022-10-29T10:54:07.950Z,967.25
2022-10-29T10:55:07.898Z,967.23
2022-10-29T10:56:07.892Z,967.19
2022-10-29T10:57:07.871Z,967.18
2022-10-29T10:58:07.860Z,967.12
2022-10-29T10:59:07.902Z,967.10
2022-10-29T11:00:07.869Z,967.11
2022-10-29T11:01:07.948Z,967.08
2022-10-29T11:02:07.869Z,967.07
2022-10-29T11:03:10.888Z,967.06
2022-10-29T11:04:07.816Z,967.06
2022-10-29T11:05:08.214Z,967.07
2022-10-29T11:06:07.775Z,967.04
2022-10-29T11:07:07.782Z,967.07
2022-10-29T11:08:07.766Z,967.04
2022-10-29T11:09:07.755Z,967.05
2022-10-29T11:10:07.788Z,967.06
2022-10-29T11:11:07.729Z,967.01
2022-10-29T11:12:07.717Z,967.02
2022-10-29T11:13:07.706Z,967.01
2022-10-29T11:14:07.698Z,967.00
2022-10-29T11:15:07.686Z,967.00
2022-10-29T11:16:07.667Z,967.00
2022-10-29T11:17:07.661Z,966.96
2022-10-29T11:18:10.731Z,967.00
2022-10-29T11:19:07.662Z,966.91
2022-10-29T11:20:07.629Z,966.89
2022-10-29T11:21:07.762Z,966.87
2022-10-29T11:22:07.609Z,966.87
2022-10-29T11:23:07.611Z,966.86
2022-10-29T11:24:07.592Z,966.87
2022-10-29T11:25:07.580Z,966.84
2022-10-29T11:26:07.582Z,966.83
2022-10-29T11:27:07.581Z,966.83
2022-10-29T11:28:07.553Z,966.81
2022-10-29T11:29:07.777Z,966.81
2022-10-29T11:30:07.536Z,966.80
2022-10-29T11:31:07.521Z,966.78
2022-10-29T11:32:07.534Z,966.78
2022-10-29T11:33:10.559Z,966.75
2022-10-29T11:34:07.503Z,966.75
2022-10-29T11:35:07.484Z,966.73
2022-10-29T11:36:07.465Z,966.74
2022-10-29T11:37:07.501Z,966.75
2022-10-29T11:38:07.468Z,966.73
2022-10-29T11:39:07.489Z,966.70
2022-10-29T11:40:07.415Z,966.67
2022-10-29T11:41:07.498Z,966.65
2022-10-29T11:42:07.430Z,966.64
2022-10-29T11:43:09.279Z,966.61
2022-10-29T11:44:07.389Z,966.63
2022-10-29T11:45:07.372Z,966.60
2022-10-29T11:46:07.366Z,966.61
2022-10-29T11:47:07.446Z,966.62
2022-10-29T11:48:10.373Z,966.61
2022-10-29T11:49:08.350Z,966.57
2022-10-29T11:50:07.325Z,966.61
2022-10-29T11:51:07.310Z,966.56
2022-10-29T11:52:07.298Z,966.58
2022-10-29T11:53:07.295Z,966.58
2022-10-29T11:54:07.274Z,966.57
2022-10-29T11:55:07.366Z,966.54
2022-10-29T11:56:07.286Z,966.54
2022-10-29T11:57:07.261Z,966.51
2022-10-29T11:58:07.233Z,966.55
2022-10-29T12:00:07.223Z,966.46
2022-10-29T12:01:07.204Z,966.44
2022-10-29T12:02:07.193Z,966.47
2022-10-29T12:03:10.185Z,966.46
2022-10-29T12:04:07.284Z,966.46
2022-10-29T12:05:07.175Z,966.46
2022-10-29T12:06:07.155Z,966.43
2022-10-29T12:07:07.154Z,966.43
2022-10-29T12:08:07.135Z,966.43
2022-10-29T12:09:07.117Z,966.43
2022-10-29T12:10:07.117Z,966.39
2022-10-29T12:11:07.098Z,966.37
2022-10-29T12:12:07.099Z,966.37
2022-10-29T12:13:07.100Z,966.38
2022-10-29T12:14:07.067Z,966.36
2022-10-29T12:15:07.059Z,966.36
2022-10-29T12:16:07.069Z,966.34
2022-10-29T12:17:07.034Z,966.35
2022-10-29T12:18:10.113Z,966.35
2022-10-29T12:19:07.030Z,966.32
2022-10-29T12:21:06.998Z,966.32
2022-10-29T12:22:06.984Z,966.28
2022-10-29T12:23:11.981Z,966.25
2022-10-29T12:24:06.953Z,966.25
2022-10-29T12:26:06.944Z,966.27
2022-10-29T12:27:06.931Z,966.23
2022-10-29T12:28:06.924Z,966.23
2022-10-29T12:29:06.966Z,966.19
2022-10-29T12:30:06.898Z,966.24
2022-10-29T12:31:06.891Z,966.20
2022-10-29T12:32:06.892Z,966.22
2022-10-29T12:33:09.877Z,966.19
2022-10-29T12:34:06.881Z,966.24
2022-10-29T12:35:06.845Z,966.22
2022-10-29T12:36:06.834Z,966.21
2022-10-29T12:37:06.826Z,966.18
2022-10-29T12:38:06.856Z,966.21
2022-10-29T12:39:06.802Z,966.20
2022-10-29T12:40:06.789Z,966.19